Portada
METAR-TAF:

METAR-TAF

Aeropuertos :

Aeropuerto de Orán Es Sénia

Orán, Argelia

latitud: 35-38N, longitud: 000-36W, altitud: 90 m

Observación

El informe se hizo hace 19 minutos, a las 08:00 UTC
Viento 9 kt del suroeste
Temperatura 21°C
Humedad 56%
Presión 1018 hPa
Visibilidad 10 km o más
sin nubes por debajo de 1500 m y sin presencia de cumulonimbus.

METAR: DAOO 130800Z 22009KT CAVOK 21/12 Q1018

Hora: 09:19 (08:19 UTC)

Pronóstico

El informe se hizo hace 3 horas y 19 minutos, a las 05:00 UTC
Pronóstico válido del 13 a las 06 UTC al 14 a las 06 UTC
Viento 10 kt del sur-suroeste
Visibilidad 10 km o más
sin nubes por debajo de 1500 m y sin presencia de cumulonimbus.
Evolucionando progresivamente
del 13 a las 10 UTC al 13 a las 12 UTC
Viento 10 kt del noroeste
Evolucionando progresivamente
del 13 a las 20 UTC al 13 a las 22 UTC
Viento 2 kt con dirección variable

TAF: DAOO 130500Z 1306/1406 20010KT CAVOK BECMG 1310/1312 32010KT BECMG 1320/1322 VRB02KT

Observaciones y pronósticos meteorológicos de más de 4000 aeropuertos (mensajes METAR y TAF).

Los puntos amarillos y rojos representan las estaciones disponibles.

Ponga el ratón en el punto deseado para ver el nombre de la estación.

Haga clic para ver las observaciones y los pronósticos meteorológicos.

Para cambiar el mapa : haga clic en los botones verdes con una cruz de color negro para hacer un zoom, en el botón verde con un guión para alejar o en las flechas verdes para mapas adyacentes.


METAR-TAF: